sensor_id;sensor_type;location;lat;lon;timestamp;P1;durP1;ratioP1;P2;durP2;ratioP2
13185;SDS011;6658;53.080;7.428;2023-03-01T00:01:59;20.10;;;14.20;;
13185;SDS011;6658;53.080;7.428;2023-03-01T00:04:26;15.43;;;13.63;;
13185;SDS011;6658;53.080;7.428;2023-03-01T00:06:52;19.23;;;15.00;;
13185;SDS011;6658;53.080;7.428;2023-03-01T00:09:18;19.53;;;14.17;;
13185;SDS011;6658;53.080;7.428;2023-03-01T00:11:44;19.37;;;14.93;;
13185;SDS011;6658;53.080;7.428;2023-03-01T00:14:10;16.80;;;13.27;;
13185;SDS011;6658;53.080;7.428;2023-03-01T00:16:37;16.77;;;13.80;;
13185;SDS011;6658;53.080;7.428;2023-03-01T00:19:04;15.67;;;13.60;;
13185;SDS011;6658;53.080;7.428;2023-03-01T00:21:31;17.87;;;13.80;;
13185;SDS011;6658;53.080;7.428;2023-03-01T00:23:57;16.93;;;14.20;;
13185;SDS011;6658;53.080;7.428;2023-03-01T00:26:24;18.67;;;14.40;;
13185;SDS011;6658;53.080;7.428;2023-03-01T00:28:50;18.70;;;15.13;;
13185;SDS011;6658;53.080;7.428;2023-03-01T00:31:17;17.37;;;13.97;;
13185;SDS011;6658;53.080;7.428;2023-03-01T00:33:45;19.23;;;14.37;;
13185;SDS011;6658;53.080;7.428;2023-03-01T00:36:11;18.47;;;14.67;;
13185;SDS011;6658;53.080;7.428;2023-03-01T00:38:39;17.33;;;14.20;;
13185;SDS011;6658;53.080;7.428;2023-03-01T00:41:07;19.83;;;14.30;;
13185;SDS011;6658;53.080;7.428;2023-03-01T00:43:35;18.90;;;14.70;;
13185;SDS011;6658;53.080;7.428;2023-03-01T00:46:05;19.63;;;14.30;;
13185;SDS011;6658;53.080;7.428;2023-03-01T00:48:33;20.23;;;14.13;;
13185;SDS011;6658;53.080;7.428;2023-03-01T00:51:08;19.13;;;14.80;;
13185;SDS011;6658;53.080;7.428;2023-03-01T00:53:36;16.63;;;14.40;;
13185;SDS011;6658;53.080;7.428;2023-03-01T00:56:03;20.60;;;15.17;;
13185;SDS011;6658;53.080;7.428;2023-03-01T00:58:30;20.07;;;15.47;;
13185;SDS011;6658;53.080;7.428;2023-03-01T01:00:55;19.13;;;15.40;;
13185;SDS011;6658;53.080;7.428;2023-03-01T01:03:21;20.30;;;14.67;;
13185;SDS011;6658;53.080;7.428;2023-03-01T01:05:49;17.73;;;14.47;;
13185;SDS011;6658;53.080;7.428;2023-03-01T01:08:15;16.97;;;14.77;;
13185;SDS011;6658;53.080;7.428;2023-03-01T01:10:43;17.70;;;14.70;;
13185;SDS011;6658;53.080;7.428;2023-03-01T01:13:09;19.13;;;14.47;;
13185;SDS011;6658;53.080;7.428;2023-03-01T01:15:35;19.77;;;15.30;;
13185;SDS011;6658;53.080;7.428;2023-03-01T01:18:01;19.00;;;15.13;;
13185;SDS011;6658;53.080;7.428;2023-03-01T01:20:27;16.87;;;13.93;;
13185;SDS011;6658;53.080;7.428;2023-03-01T01:22:53;19.77;;;14.90;;
13185;SDS011;6658;53.080;7.428;2023-03-01T01:25:19;18.03;;;14.87;;
13185;SDS011;6658;53.080;7.428;2023-03-01T01:27:45;18.00;;;15.20;;
13185;SDS011;6658;53.080;7.428;2023-03-01T01:30:11;17.00;;;14.30;;
13185;SDS011;6658;53.080;7.428;2023-03-01T01:32:37;18.00;;;14.97;;
13185;SDS011;6658;53.080;7.428;2023-03-01T01:35:03;18.20;;;15.13;;
13185;SDS011;6658;53.080;7.428;2023-03-01T01:37:28;19.50;;;14.63;;
13185;SDS011;6658;53.080;7.428;2023-03-01T01:39:58;20.47;;;14.80;;
13185;SDS011;6658;53.080;7.428;2023-03-01T01:42:24;20.10;;;15.33;;
13185;SDS011;6658;53.080;7.428;2023-03-01T01:45:23;18.60;;;15.30;;
13185;SDS011;6658;53.080;7.428;2023-03-01T01:48:10;20.33;;;15.00;;
13185;SDS011;6658;53.080;7.428;2023-03-01T01:50:40;21.07;;;15.43;;
13185;SDS011;6658;53.080;7.428;2023-03-01T01:53:11;19.73;;;15.37;;
13185;SDS011;6658;53.080;7.428;2023-03-01T01:55:41;18.00;;;15.07;;
13185;SDS011;6658;53.080;7.428;2023-03-01T01:58:11;18.60;;;15.03;;
13185;SDS011;6658;53.080;7.428;2023-03-01T02:00:40;19.07;;;15.10;;
13185;SDS011;6658;53.080;7.428;2023-03-01T02:03:08;20.83;;;15.80;;
13185;SDS011;6658;53.080;7.428;2023-03-01T02:08:20;17.67;;;15.10;;
13185;SDS011;6658;53.080;7.428;2023-03-01T02:10:49;18.57;;;14.33;;
13185;SDS011;6658;53.080;7.428;2023-03-01T02:13:16;21.87;;;15.30;;
13185;SDS011;6658;53.080;7.428;2023-03-01T02:15:42;19.73;;;14.80;;
13185;SDS011;6658;53.080;7.428;2023-03-01T02:18:11;19.37;;;14.87;;
13185;SDS011;6658;53.080;7.428;2023-03-01T02:20:48;19.43;;;15.40;;
13185;SDS011;6658;53.080;7.428;2023-03-01T02:23:16;19.07;;;15.33;;
13185;SDS011;6658;53.080;7.428;2023-03-01T02:25:59;19.63;;;15.73;;
13185;SDS011;6658;53.080;7.428;2023-03-01T02:28:36;18.73;;;14.97;;
13185;SDS011;6658;53.080;7.428;2023-03-01T02:31:07;18.47;;;15.00;;
13185;SDS011;6658;53.080;7.428;2023-03-01T02:33:53;17.30;;;14.63;;
13185;SDS011;6658;53.080;7.428;2023-03-01T02:36:21;19.47;;;15.17;;
13185;SDS011;6658;53.080;7.428;2023-03-01T02:38:51;18.17;;;15.27;;
13185;SDS011;6658;53.080;7.428;2023-03-01T02:41:21;19.20;;;14.83;;
13185;SDS011;6658;53.080;7.428;2023-03-01T02:43:48;19.53;;;13.93;;
13185;SDS011;6658;53.080;7.428;2023-03-01T02:46:15;21.67;;;15.77;;
13185;SDS011;6658;53.080;7.428;2023-03-01T02:48:47;19.33;;;15.63;;
13185;SDS011;6658;53.080;7.428;2023-03-01T02:57:12;20.70;;;15.07;;
13185;SDS011;6658;53.080;7.428;2023-03-01T02:59:38;20.67;;;15.83;;
13185;SDS011;6658;53.080;7.428;2023-03-01T03:02:05;21.30;;;16.13;;
13185;SDS011;6658;53.080;7.428;2023-03-01T03:04:32;20.63;;;16.17;;
13185;SDS011;6658;53.080;7.428;2023-03-01T03:06:58;19.97;;;15.03;;
13185;SDS011;6658;53.080;7.428;2023-03-01T03:09:24;17.03;;;14.50;;
13185;SDS011;6658;53.080;7.428;2023-03-01T03:11:49;19.03;;;15.10;;
13185;SDS011;6658;53.080;7.428;2023-03-01T03:14:16;20.03;;;16.10;;
13185;SDS011;6658;53.080;7.428;2023-03-01T03:16:43;19.27;;;15.70;;
13185;SDS011;6658;53.080;7.428;2023-03-01T03:19:11;21.07;;;15.90;;
13185;SDS011;6658;53.080;7.428;2023-03-01T03:21:37;19.53;;;15.93;;
13185;SDS011;6658;53.080;7.428;2023-03-01T03:24:03;22.13;;;16.63;;
13185;SDS011;6658;53.080;7.428;2023-03-01T03:26:30;20.13;;;15.77;;
13185;SDS011;6658;53.080;7.428;2023-03-01T03:28:56;22.97;;;17.50;;
13185;SDS011;6658;53.080;7.428;2023-03-01T03:31:22;22.90;;;17.20;;
13185;SDS011;6658;53.080;7.428;2023-03-01T03:33:48;26.43;;;17.90;;
13185;SDS011;6658;53.080;7.428;2023-03-01T03:36:18;21.97;;;16.43;;
13185;SDS011;6658;53.080;7.428;2023-03-01T03:38:45;19.53;;;15.63;;
13185;SDS011;6658;53.080;7.428;2023-03-01T03:41:12;20.40;;;16.03;;
13185;SDS011;6658;53.080;7.428;2023-03-01T03:43:39;20.53;;;16.60;;
13185;SDS011;6658;53.080;7.428;2023-03-01T03:46:05;22.30;;;16.30;;
13185;SDS011;6658;53.080;7.428;2023-03-01T03:48:36;22.53;;;17.47;;
13185;SDS011;6658;53.080;7.428;2023-03-01T03:51:06;25.00;;;17.97;;
13185;SDS011;6658;53.080;7.428;2023-03-01T03:53:32;24.80;;;18.40;;
13185;SDS011;6658;53.080;7.428;2023-03-01T03:55:58;28.37;;;17.07;;
13185;SDS011;6658;53.080;7.428;2023-03-01T03:58:24;20.07;;;16.83;;
13185;SDS011;6658;53.080;7.428;2023-03-01T04:00:52;22.87;;;17.83;;
13185;SDS011;6658;53.080;7.428;2023-03-01T04:03:20;22.23;;;16.73;;
13185;SDS011;6658;53.080;7.428;2023-03-01T04:05:47;23.03;;;17.70;;
13185;SDS011;6658;53.080;7.428;2023-03-01T04:08:15;23.07;;;17.60;;
13185;SDS011;6658;53.080;7.428;2023-03-01T04:10:45;26.73;;;17.70;;
13185;SDS011;6658;53.080;7.428;2023-03-01T04:13:14;26.30;;;17.60;;
13185;SDS011;6658;53.080;7.428;2023-03-01T04:15:41;24.47;;;17.70;;
13185;SDS011;6658;53.080;7.428;2023-03-01T04:18:14;22.07;;;17.23;;
13185;SDS011;6658;53.080;7.428;2023-03-01T04:20:40;25.40;;;17.73;;
13185;SDS011;6658;53.080;7.428;2023-03-01T04:28:26;26.13;;;18.40;;
13185;SDS011;6658;53.080;7.428;2023-03-01T04:31:02;22.57;;;16.90;;
13185;SDS011;6658;53.080;7.428;2023-03-01T04:33:49;28.20;;;19.17;;
13185;SDS011;6658;53.080;7.428;2023-03-01T04:36:20;28.87;;;18.77;;
13185;SDS011;6658;53.080;7.428;2023-03-01T04:38:47;30.93;;;20.73;;
13185;SDS011;6658;53.080;7.428;2023-03-01T04:41:14;36.97;;;22.83;;
13185;SDS011;6658;53.080;7.428;2023-03-01T04:43:41;63.47;;;29.47;;
13185;SDS011;6658;53.080;7.428;2023-03-01T04:46:07;158.30;;;35.57;;
13185;SDS011;6658;53.080;7.428;2023-03-01T04:48:35;84.03;;;30.20;;
13185;SDS011;6658;53.080;7.428;2023-03-01T04:51:02;38.83;;;25.13;;
13185;SDS011;6658;53.080;7.428;2023-03-01T04:53:28;32.57;;;22.90;;
13185;SDS011;6658;53.080;7.428;2023-03-01T04:55:55;41.00;;;24.63;;
13185;SDS011;6658;53.080;7.428;2023-03-01T04:58:24;55.63;;;28.00;;
13185;SDS011;6658;53.080;7.428;2023-03-01T05:00:51;39.27;;;25.47;;
13185;SDS011;6658;53.080;7.428;2023-03-01T05:03:18;48.33;;;27.17;;
13185;SDS011;6658;53.080;7.428;2023-03-01T05:05:45;40.80;;;25.67;;
13185;SDS011;6658;53.080;7.428;2023-03-01T05:08:14;41.53;;;25.37;;
13185;SDS011;6658;53.080;7.428;2023-03-01T05:10:44;46.83;;;26.37;;
13185;SDS011;6658;53.080;7.428;2023-03-01T05:13:11;53.80;;;29.30;;
13185;SDS011;6658;53.080;7.428;2023-03-01T05:15:38;52.70;;;27.20;;
13185;SDS011;6658;53.080;7.428;2023-03-01T05:18:04;50.83;;;28.03;;
13185;SDS011;6658;53.080;7.428;2023-03-01T05:20:36;108.90;;;31.50;;
13185;SDS011;6658;53.080;7.428;2023-03-01T05:23:02;73.10;;;29.03;;
13185;SDS011;6658;53.080;7.428;2023-03-01T05:25:30;62.37;;;31.03;;
13185;SDS011;6658;53.080;7.428;2023-03-01T05:28:01;86.90;;;28.97;;
13185;SDS011;6658;53.080;7.428;2023-03-01T05:30:30;57.40;;;27.33;;
13185;SDS011;6658;53.080;7.428;2023-03-01T05:32:57;113.93;;;27.97;;
13185;SDS011;6658;53.080;7.428;2023-03-01T05:35:23;81.40;;;27.97;;
13185;SDS011;6658;53.080;7.428;2023-03-01T05:37:49;96.07;;;29.57;;
13185;SDS011;6658;53.080;7.428;2023-03-01T05:40:16;115.07;;;32.47;;
13185;SDS011;6658;53.080;7.428;2023-03-01T05:42:48;85.93;;;30.97;;
13185;SDS011;6658;53.080;7.428;2023-03-01T05:45:15;88.30;;;31.63;;
13185;SDS011;6658;53.080;7.428;2023-03-01T05:47:42;140.90;;;33.00;;
13185;SDS011;6658;53.080;7.428;2023-03-01T05:50:32;158.50;;;31.97;;
13185;SDS011;6658;53.080;7.428;2023-03-01T05:53:02;134.27;;;30.77;;
13185;SDS011;6658;53.080;7.428;2023-03-01T05:55:31;142.00;;;28.67;;
13185;SDS011;6658;53.080;7.428;2023-03-01T05:58:00;121.50;;;28.17;;
13185;SDS011;6658;53.080;7.428;2023-03-01T06:00:28;75.60;;;25.77;;
13185;SDS011;6658;53.080;7.428;2023-03-01T06:02:55;55.37;;;23.27;;
13185;SDS011;6658;53.080;7.428;2023-03-01T06:05:22;109.37;;;25.27;;
13185;SDS011;6658;53.080;7.428;2023-03-01T06:07:49;75.57;;;24.67;;
13185;SDS011;6658;53.080;7.428;2023-03-01T06:10:15;93.93;;;26.03;;
13185;SDS011;6658;53.080;7.428;2023-03-01T06:12:42;87.07;;;25.00;;
13185;SDS011;6658;53.080;7.428;2023-03-01T06:15:09;77.50;;;24.37;;
13185;SDS011;6658;53.080;7.428;2023-03-01T06:17:37;63.87;;;22.07;;
13185;SDS011;6658;53.080;7.428;2023-03-01T06:20:05;44.80;;;22.00;;
13185;SDS011;6658;53.080;7.428;2023-03-01T06:22:33;74.80;;;23.23;;
13185;SDS011;6658;53.080;7.428;2023-03-01T06:24:59;56.73;;;22.23;;
13185;SDS011;6658;53.080;7.428;2023-03-01T06:27:24;65.07;;;22.90;;
13185;SDS011;6658;53.080;7.428;2023-03-01T06:29:50;54.87;;;22.63;;
13185;SDS011;6658;53.080;7.428;2023-03-01T06:32:16;49.37;;;19.63;;
13185;SDS011;6658;53.080;7.428;2023-03-01T06:34:41;46.97;;;19.53;;
13185;SDS011;6658;53.080;7.428;2023-03-01T06:37:07;38.33;;;19.43;;
13185;SDS011;6658;53.080;7.428;2023-03-01T06:39:33;46.87;;;19.67;;
13185;SDS011;6658;53.080;7.428;2023-03-01T06:41:59;50.77;;;21.03;;
13185;SDS011;6658;53.080;7.428;2023-03-01T06:44:25;75.60;;;20.43;;
13185;SDS011;6658;53.080;7.428;2023-03-01T06:46:51;34.60;;;18.37;;
13185;SDS011;6658;53.080;7.428;2023-03-01T06:49:17;35.47;;;18.80;;
13185;SDS011;6658;53.080;7.428;2023-03-01T06:51:43;41.60;;;20.27;;
13185;SDS011;6658;53.080;7.428;2023-03-01T06:54:09;64.47;;;20.57;;
13185;SDS011;6658;53.080;7.428;2023-03-01T06:56:35;41.03;;;19.53;;
13185;SDS011;6658;53.080;7.428;2023-03-01T06:59:01;38.23;;;20.80;;
13185;SDS011;6658;53.080;7.428;2023-03-01T07:01:28;55.60;;;19.67;;
13185;SDS011;6658;53.080;7.428;2023-03-01T07:03:54;35.93;;;19.63;;
13185;SDS011;6658;53.080;7.428;2023-03-01T07:06:21;36.13;;;19.73;;
13185;SDS011;6658;53.080;7.428;2023-03-01T07:08:47;43.80;;;19.00;;
13185;SDS011;6658;53.080;7.428;2023-03-01T07:11:12;31.73;;;19.83;;
13185;SDS011;6658;53.080;7.428;2023-03-01T07:13:38;28.13;;;19.60;;
13185;SDS011;6658;53.080;7.428;2023-03-01T07:16:04;31.63;;;18.70;;
13185;SDS011;6658;53.080;7.428;2023-03-01T07:18:30;53.37;;;19.73;;
13185;SDS011;6658;53.080;7.428;2023-03-01T07:20:56;26.27;;;18.73;;
13185;SDS011;6658;53.080;7.428;2023-03-01T07:23:21;28.77;;;20.87;;
13185;SDS011;6658;53.080;7.428;2023-03-01T07:25:53;64.97;;;19.33;;
13185;SDS011;6658;53.080;7.428;2023-03-01T07:28:20;35.83;;;20.33;;
13185;SDS011;6658;53.080;7.428;2023-03-01T07:30:47;33.17;;;20.37;;
13185;SDS011;6658;53.080;7.428;2023-03-01T07:33:13;25.53;;;20.33;;
13185;SDS011;6658;53.080;7.428;2023-03-01T07:35:38;25.60;;;19.20;;
13185;SDS011;6658;53.080;7.428;2023-03-01T07:38:04;23.47;;;18.30;;
13185;SDS011;6658;53.080;7.428;2023-03-01T07:40:30;21.47;;;18.47;;
13185;SDS011;6658;53.080;7.428;2023-03-01T07:42:56;25.77;;;20.33;;
13185;SDS011;6658;53.080;7.428;2023-03-01T07:45:22;23.57;;;19.50;;
13185;SDS011;6658;53.080;7.428;2023-03-01T07:47:50;24.73;;;20.17;;
13185;SDS011;6658;53.080;7.428;2023-03-01T07:50:16;24.53;;;19.90;;
13185;SDS011;6658;53.080;7.428;2023-03-01T07:52:44;27.10;;;20.20;;
13185;SDS011;6658;53.080;7.428;2023-03-01T07:55:11;28.07;;;21.57;;
13185;SDS011;6658;53.080;7.428;2023-03-01T07:57:36;27.00;;;20.97;;
13185;SDS011;6658;53.080;7.428;2023-03-01T08:00:03;26.67;;;21.83;;
13185;SDS011;6658;53.080;7.428;2023-03-01T08:02:32;26.50;;;21.57;;
13185;SDS011;6658;53.080;7.428;2023-03-01T08:04:58;26.40;;;21.80;;
13185;SDS011;6658;53.080;7.428;2023-03-01T08:07:23;31.40;;;23.60;;
13185;SDS011;6658;53.080;7.428;2023-03-01T08:09:49;27.87;;;21.40;;
13185;SDS011;6658;53.080;7.428;2023-03-01T08:12:15;30.60;;;24.03;;
13185;SDS011;6658;53.080;7.428;2023-03-01T08:14:41;31.20;;;23.40;;
13185;SDS011;6658;53.080;7.428;2023-03-01T08:17:08;32.20;;;24.70;;
13185;SDS011;6658;53.080;7.428;2023-03-01T08:19:34;30.90;;;24.13;;
13185;SDS011;6658;53.080;7.428;2023-03-01T08:22:01;30.50;;;24.33;;
13185;SDS011;6658;53.080;7.428;2023-03-01T08:24:27;34.10;;;25.33;;
13185;SDS011;6658;53.080;7.428;2023-03-01T08:26:53;31.20;;;23.93;;
13185;SDS011;6658;53.080;7.428;2023-03-01T08:29:19;32.53;;;24.70;;
13185;SDS011;6658;53.080;7.428;2023-03-01T08:31:45;32.23;;;24.70;;
13185;SDS011;6658;53.080;7.428;2023-03-01T08:34:12;35.80;;;26.57;;
13185;SDS011;6658;53.080;7.428;2023-03-01T08:36:41;33.50;;;27.13;;
13185;SDS011;6658;53.080;7.428;2023-03-01T08:39:09;32.93;;;24.83;;
13185;SDS011;6658;53.080;7.428;2023-03-01T08:41:36;34.97;;;25.60;;
13185;SDS011;6658;53.080;7.428;2023-03-01T08:44:03;30.67;;;24.97;;
13185;SDS011;6658;53.080;7.428;2023-03-01T08:46:29;32.23;;;25.67;;
13185;SDS011;6658;53.080;7.428;2023-03-01T08:49:03;28.87;;;25.73;;
13185;SDS011;6658;53.080;7.428;2023-03-01T08:51:29;30.20;;;26.17;;
13185;SDS011;6658;53.080;7.428;2023-03-01T08:53:57;33.13;;;25.47;;
13185;SDS011;6658;53.080;7.428;2023-03-01T08:56:22;30.20;;;23.70;;
13185;SDS011;6658;53.080;7.428;2023-03-01T08:58:48;27.83;;;23.60;;
13185;SDS011;6658;53.080;7.428;2023-03-01T09:01:15;26.97;;;23.87;;
13185;SDS011;6658;53.080;7.428;2023-03-01T09:03:42;31.30;;;24.23;;
13185;SDS011;6658;53.080;7.428;2023-03-01T09:06:08;28.33;;;23.43;;
13185;SDS011;6658;53.080;7.428;2023-03-01T09:08:38;28.37;;;24.00;;
13185;SDS011;6658;53.080;7.428;2023-03-01T09:11:06;28.63;;;24.63;;
13185;SDS011;6658;53.080;7.428;2023-03-01T09:13:34;28.17;;;24.40;;
13185;SDS011;6658;53.080;7.428;2023-03-01T09:16:01;24.83;;;22.23;;
13185;SDS011;6658;53.080;7.428;2023-03-01T09:18:28;22.57;;;19.57;;
13185;SDS011;6658;53.080;7.428;2023-03-01T09:21:01;21.90;;;19.60;;
13185;SDS011;6658;53.080;7.428;2023-03-01T09:23:38;23.17;;;19.97;;
13185;SDS011;6658;53.080;7.428;2023-03-01T09:26:06;20.23;;;18.07;;
13185;SDS011;6658;53.080;7.428;2023-03-01T09:28:34;19.43;;;17.37;;
13185;SDS011;6658;53.080;7.428;2023-03-01T09:31:00;21.50;;;18.20;;
13185;SDS011;6658;53.080;7.428;2023-03-01T09:33:28;18.93;;;17.00;;
13185;SDS011;6658;53.080;7.428;2023-03-01T09:35:58;19.27;;;16.83;;
13185;SDS011;6658;53.080;7.428;2023-03-01T09:38:25;15.97;;;13.67;;
13185;SDS011;6658;53.080;7.428;2023-03-01T09:40:51;15.37;;;13.03;;
13185;SDS011;6658;53.080;7.428;2023-03-01T09:46:22;11.63;;;10.43;;
13185;SDS011;6658;53.080;7.428;2023-03-01T09:48:51;10.57;;;9.57;;
13185;SDS011;6658;53.080;7.428;2023-03-01T09:51:29;10.07;;;7.87;;
13185;SDS011;6658;53.080;7.428;2023-03-01T09:53:57;9.57;;;8.10;;
13185;SDS011;6658;53.080;7.428;2023-03-01T09:59:20;8.67;;;6.63;;
13185;SDS011;6658;53.080;7.428;2023-03-01T10:10:10;5.13;;;3.70;;
13185;SDS011;6658;53.080;7.428;2023-03-01T10:12:50;4.37;;;3.70;;
13185;SDS011;6658;53.080;7.428;2023-03-01T10:15:18;3.57;;;2.70;;
13185;SDS011;6658;53.080;7.428;2023-03-01T10:17:57;3.53;;;3.23;;
13185;SDS011;6658;53.080;7.428;2023-03-01T10:23:22;5.03;;;3.70;;
13185;SDS011;6658;53.080;7.428;2023-03-01T10:31:27;2.70;;;2.43;;
13185;SDS011;6658;53.080;7.428;2023-03-01T10:37:10;4.23;;;3.43;;
13185;SDS011;6658;53.080;7.428;2023-03-01T10:39:53;3.10;;;2.70;;
13185;SDS011;6658;53.080;7.428;2023-03-01T10:42:33;4.37;;;3.47;;
13185;SDS011;6658;53.080;7.428;2023-03-01T10:45:16;3.67;;;3.27;;
13185;SDS011;6658;53.080;7.428;2023-03-01T10:48:05;3.47;;;3.00;;
13185;SDS011;6658;53.080;7.428;2023-03-01T10:58:40;4.97;;;3.43;;
13185;SDS011;6658;53.080;7.428;2023-03-01T11:01:29;4.57;;;3.43;;
13185;SDS011;6658;53.080;7.428;2023-03-01T11:06:36;4.37;;;3.97;;
13185;SDS011;6658;53.080;7.428;2023-03-01T11:09:13;6.30;;;5.00;;
13185;SDS011;6658;53.080;7.428;2023-03-01T11:11:54;5.23;;;4.73;;
13185;SDS011;6658;53.080;7.428;2023-03-01T11:14:33;6.40;;;5.70;;
13185;SDS011;6658;53.080;7.428;2023-03-01T11:17:04;6.20;;;5.20;;
13185;SDS011;6658;53.080;7.428;2023-03-01T11:22:53;5.53;;;4.87;;
13185;SDS011;6658;53.080;7.428;2023-03-01T11:25:23;5.40;;;4.40;;
13185;SDS011;6658;53.080;7.428;2023-03-01T11:27:52;5.40;;;4.60;;
13185;SDS011;6658;53.080;7.428;2023-03-01T11:36:22;4.93;;;4.00;;
13185;SDS011;6658;53.080;7.428;2023-03-01T11:39:02;5.23;;;4.50;;
13185;SDS011;6658;53.080;7.428;2023-03-01T11:41:42;7.20;;;4.73;;
13185;SDS011;6658;53.080;7.428;2023-03-01T11:44:18;5.73;;;4.60;;
13185;SDS011;6658;53.080;7.428;2023-03-01T11:47:01;4.50;;;4.00;;
13185;SDS011;6658;53.080;7.428;2023-03-01T12:02:46;6.03;;;5.50;;
13185;SDS011;6658;53.080;7.428;2023-03-01T12:14:40;7.07;;;6.10;;
13185;SDS011;6658;53.080;7.428;2023-03-01T12:28:51;7.27;;;6.57;;
13185;SDS011;6658;53.080;7.428;2023-03-01T12:39:45;123.87;;;24.47;;
13185;SDS011;6658;53.080;7.428;2023-03-01T12:45:41;7.33;;;6.23;;
13185;SDS011;6658;53.080;7.428;2023-03-01T12:48:24;6.57;;;5.97;;
13185;SDS011;6658;53.080;7.428;2023-03-01T12:51:16;8.30;;;6.73;;
13185;SDS011;6658;53.080;7.428;2023-03-01T12:53:50;7.93;;;7.13;;
13185;SDS011;6658;53.080;7.428;2023-03-01T12:56:19;8.20;;;6.90;;
13185;SDS011;6658;53.080;7.428;2023-03-01T12:58:53;7.87;;;6.97;;
13185;SDS011;6658;53.080;7.428;2023-03-01T13:07:04;7.20;;;6.43;;
13185;SDS011;6658;53.080;7.428;2023-03-01T13:15:30;7.00;;;6.30;;
13185;SDS011;6658;53.080;7.428;2023-03-01T13:17:58;7.33;;;6.63;;
13185;SDS011;6658;53.080;7.428;2023-03-01T13:23:13;7.90;;;7.10;;
13185;SDS011;6658;53.080;7.428;2023-03-01T13:28:38;9.13;;;7.40;;
13185;SDS011;6658;53.080;7.428;2023-03-01T13:33:51;7.97;;;7.03;;
13185;SDS011;6658;53.080;7.428;2023-03-01T13:37:03;7.50;;;6.70;;
13185;SDS011;6658;53.080;7.428;2023-03-01T13:39:18;7.83;;;7.03;;
13185;SDS011;6658;53.080;7.428;2023-03-01T13:41:53;7.43;;;6.70;;
13185;SDS011;6658;53.080;7.428;2023-03-01T13:44:35;8.30;;;7.43;;
13185;SDS011;6658;53.080;7.428;2023-03-01T13:49:48;7.50;;;6.70;;
13185;SDS011;6658;53.080;7.428;2023-03-01T13:55:13;7.53;;;6.83;;
13185;SDS011;6658;53.080;7.428;2023-03-01T13:57:39;8.33;;;7.20;;
13185;SDS011;6658;53.080;7.428;2023-03-01T14:00:32;8.20;;;7.40;;
13185;SDS011;6658;53.080;7.428;2023-03-01T14:05:36;8.97;;;7.63;;
13185;SDS011;6658;53.080;7.428;2023-03-01T14:08:03;8.73;;;7.87;;
13185;SDS011;6658;53.080;7.428;2023-03-01T14:10:35;8.37;;;7.50;;
13185;SDS011;6658;53.080;7.428;2023-03-01T14:15:56;9.13;;;7.30;;
13185;SDS011;6658;53.080;7.428;2023-03-01T14:18:32;8.10;;;7.30;;
13185;SDS011;6658;53.080;7.428;2023-03-01T14:21:32;8.60;;;7.70;;
13185;SDS011;6658;53.080;7.428;2023-03-01T14:24:00;9.23;;;8.33;;
13185;SDS011;6658;53.080;7.428;2023-03-01T14:26:26;7.87;;;7.07;;
13185;SDS011;6658;53.080;7.428;2023-03-01T14:28:51;9.13;;;7.50;;
13185;SDS011;6658;53.080;7.428;2023-03-01T14:34:03;8.03;;;7.17;;
13185;SDS011;6658;53.080;7.428;2023-03-01T14:36:30;8.03;;;7.23;;
13185;SDS011;6658;53.080;7.428;2023-03-01T14:38:58;9.03;;;7.40;;
13185;SDS011;6658;53.080;7.428;2023-03-01T14:41:30;11.83;;;8.03;;
13185;SDS011;6658;53.080;7.428;2023-03-01T14:44:00;9.33;;;7.97;;
13185;SDS011;6658;53.080;7.428;2023-03-01T14:46:38;9.67;;;8.17;;
13185;SDS011;6658;53.080;7.428;2023-03-01T14:49:22;10.87;;;8.73;;
13185;SDS011;6658;53.080;7.428;2023-03-01T14:52:00;8.77;;;7.87;;
13185;SDS011;6658;53.080;7.428;2023-03-01T14:54:41;10.00;;;8.50;;
13185;SDS011;6658;53.080;7.428;2023-03-01T14:57:28;8.80;;;7.87;;
13185;SDS011;6658;53.080;7.428;2023-03-01T14:59:55;10.30;;;8.37;;
13185;SDS011;6658;53.080;7.428;2023-03-01T15:02:25;9.13;;;8.20;;
13185;SDS011;6658;53.080;7.428;2023-03-01T15:04:56;10.17;;;8.13;;
13185;SDS011;6658;53.080;7.428;2023-03-01T15:07:26;9.80;;;8.43;;
13185;SDS011;6658;53.080;7.428;2023-03-01T15:09:56;10.07;;;8.97;;
13185;SDS011;6658;53.080;7.428;2023-03-01T15:12:36;9.20;;;8.30;;
13185;SDS011;6658;53.080;7.428;2023-03-01T15:15:20;12.87;;;10.27;;
13185;SDS011;6658;53.080;7.428;2023-03-01T15:17:54;11.27;;;8.73;;
13185;SDS011;6658;53.080;7.428;2023-03-01T15:20:23;12.30;;;9.40;;
13185;SDS011;6658;53.080;7.428;2023-03-01T15:22:51;10.70;;;9.33;;
13185;SDS011;6658;53.080;7.428;2023-03-01T15:25:18;9.80;;;8.57;;
13185;SDS011;6658;53.080;7.428;2023-03-01T15:27:48;9.93;;;8.87;;
13185;SDS011;6658;53.080;7.428;2023-03-01T15:30:17;9.57;;;8.57;;
13185;SDS011;6658;53.080;7.428;2023-03-01T15:32:44;9.77;;;7.83;;
13185;SDS011;6658;53.080;7.428;2023-03-01T15:37:58;8.77;;;7.83;;
13185;SDS011;6658;53.080;7.428;2023-03-01T15:40:28;10.03;;;8.17;;
13185;SDS011;6658;53.080;7.428;2023-03-01T15:43:01;9.00;;;7.57;;
13185;SDS011;6658;53.080;7.428;2023-03-01T15:45:28;10.63;;;9.07;;
13185;SDS011;6658;53.080;7.428;2023-03-01T15:47:56;9.27;;;7.90;;
13185;SDS011;6658;53.080;7.428;2023-03-01T15:53:00;9.13;;;8.23;;
13185;SDS011;6658;53.080;7.428;2023-03-01T15:55:31;9.70;;;8.70;;
13185;SDS011;6658;53.080;7.428;2023-03-01T15:58:05;9.33;;;8.33;;
13185;SDS011;6658;53.080;7.428;2023-03-01T16:00:37;10.70;;;9.60;;
13185;SDS011;6658;53.080;7.428;2023-03-01T16:03:04;10.23;;;9.20;;
13185;SDS011;6658;53.080;7.428;2023-03-01T16:05:31;10.67;;;9.63;;
13185;SDS011;6658;53.080;7.428;2023-03-01T16:07:58;10.63;;;9.37;;
13185;SDS011;6658;53.080;7.428;2023-03-01T16:10:23;9.97;;;8.97;;
13185;SDS011;6658;53.080;7.428;2023-03-01T16:12:50;11.20;;;10.10;;
13185;SDS011;6658;53.080;7.428;2023-03-01T16:15:27;11.07;;;9.97;;
13185;SDS011;6658;53.080;7.428;2023-03-01T16:17:56;11.93;;;10.00;;
13185;SDS011;6658;53.080;7.428;2023-03-01T16:20:25;12.30;;;10.90;;
13185;SDS011;6658;53.080;7.428;2023-03-01T16:22:51;11.77;;;10.23;;
13185;SDS011;6658;53.080;7.428;2023-03-01T16:25:19;11.47;;;10.37;;
13185;SDS011;6658;53.080;7.428;2023-03-01T16:27:46;12.07;;;10.77;;
13185;SDS011;6658;53.080;7.428;2023-03-01T16:30:14;11.30;;;10.07;;
13185;SDS011;6658;53.080;7.428;2023-03-01T16:32:41;13.30;;;10.70;;
13185;SDS011;6658;53.080;7.428;2023-03-01T16:35:09;12.13;;;10.87;;
13185;SDS011;6658;53.080;7.428;2023-03-01T16:37:36;12.37;;;11.10;;
13185;SDS011;6658;53.080;7.428;2023-03-01T16:40:02;12.20;;;10.90;;
13185;SDS011;6658;53.080;7.428;2023-03-01T16:42:33;12.70;;;11.37;;
13185;SDS011;6658;53.080;7.428;2023-03-01T16:44:59;11.77;;;10.57;;
13185;SDS011;6658;53.080;7.428;2023-03-01T16:47:26;12.70;;;11.40;;
13185;SDS011;6658;53.080;7.428;2023-03-01T16:49:52;12.27;;;10.97;;
13185;SDS011;6658;53.080;7.428;2023-03-01T16:52:19;12.53;;;11.23;;
13185;SDS011;6658;53.080;7.428;2023-03-01T16:54:45;12.73;;;11.33;;
13185;SDS011;6658;53.080;7.428;2023-03-01T16:57:11;14.23;;;11.23;;
13185;SDS011;6658;53.080;7.428;2023-03-01T16:59:36;13.67;;;12.03;;
13185;SDS011;6658;53.080;7.428;2023-03-01T17:02:02;12.37;;;11.03;;
13185;SDS011;6658;53.080;7.428;2023-03-01T17:04:29;13.23;;;11.83;;
13185;SDS011;6658;53.080;7.428;2023-03-01T17:06:54;13.00;;;11.70;;
13185;SDS011;6658;53.080;7.428;2023-03-01T17:09:20;13.33;;;11.93;;
13185;SDS011;6658;53.080;7.428;2023-03-01T17:11:47;13.53;;;12.07;;
13185;SDS011;6658;53.080;7.428;2023-03-01T17:14:14;13.73;;;11.30;;
13185;SDS011;6658;53.080;7.428;2023-03-01T17:16:41;15.47;;;12.73;;
13185;SDS011;6658;53.080;7.428;2023-03-01T17:19:08;13.87;;;12.40;;